createdAt,value
2023-04-10T00:00:06.506Z,29.03
2023-04-10T00:01:06.551Z,34.54
2023-04-10T00:02:06.581Z,31.21
2023-04-10T00:03:06.843Z,30.75
2023-04-10T00:04:06.806Z,27.69
2023-04-10T00:05:06.805Z,30.46
2023-04-10T00:06:06.685Z,29.38
2023-04-10T00:07:06.686Z,26.12
2023-04-10T00:08:06.729Z,29.85
2023-04-10T00:09:06.773Z,29.80
2023-04-10T00:10:06.805Z,28.16
2023-04-10T00:11:06.826Z,26.83
2023-04-10T00:12:06.856Z,28.27
2023-04-10T00:13:06.855Z,26.99
2023-04-10T00:14:06.879Z,28.17
2023-04-10T00:15:06.948Z,25.00
2023-04-10T00:16:06.938Z,27.44
2023-04-10T00:17:06.955Z,25.92
2023-04-10T00:18:07.055Z,28.91
2023-04-10T00:19:06.989Z,29.57
2023-04-10T00:20:06.987Z,31.37
2023-04-10T00:21:07.075Z,31.91
2023-04-10T00:22:07.061Z,29.32
2023-04-10T00:23:07.098Z,27.35
2023-04-10T00:24:07.120Z,30.14
2023-04-10T00:25:07.183Z,29.88
2023-04-10T00:26:07.193Z,31.61
2023-04-10T00:27:07.207Z,29.66
2023-04-10T00:28:07.250Z,30.46
2023-04-10T00:29:07.316Z,30.24
2023-04-10T00:30:07.319Z,31.17
2023-04-10T00:31:07.321Z,25.96
2023-04-10T00:32:07.420Z,28.28
2023-04-10T00:33:07.399Z,30.95
2023-04-10T00:34:07.415Z,30.41
2023-04-10T00:35:07.497Z,30.07
2023-04-10T00:36:07.519Z,29.35
2023-04-10T00:37:07.501Z,30.62
2023-04-10T00:38:07.582Z,28.51
2023-04-10T00:39:07.616Z,32.18
2023-04-10T00:40:07.661Z,30.82
2023-04-10T00:41:07.644Z,32.45
2023-04-10T00:42:07.693Z,32.18
2023-04-10T00:43:07.725Z,31.25
2023-04-10T00:44:07.760Z,33.04
2023-04-10T00:45:07.812Z,31.08
2023-04-10T00:46:07.855Z,32.96
2023-04-10T00:47:07.868Z,34.27
2023-04-10T00:48:07.898Z,36.48
2023-04-10T00:49:07.930Z,34.17
2023-04-10T00:50:07.984Z,32.16
2023-04-10T00:51:07.977Z,33.65
2023-04-10T00:52:08.017Z,33.07
2023-04-10T00:53:08.028Z,30.39
2023-04-10T00:54:08.106Z,35.03
2023-04-10T00:55:08.123Z,33.34
2023-04-10T00:56:08.174Z,30.75
2023-04-10T00:57:08.173Z,34.14
2023-04-10T00:58:08.192Z,31.10
2023-04-10T00:59:08.246Z,30.67
2023-04-10T01:00:08.282Z,31.33
2023-04-10T01:01:08.393Z,31.80
2023-04-10T01:02:08.416Z,30.29
2023-04-10T01:03:08.599Z,28.15
2023-04-10T01:04:08.458Z,29.92
2023-04-10T01:05:08.468Z,29.89
2023-04-10T01:06:08.482Z,30.38
2023-04-10T01:07:08.495Z,32.74
2023-04-10T01:08:08.541Z,28.53
2023-04-10T01:09:08.563Z,28.89
2023-04-10T01:10:08.625Z,32.41
2023-04-10T01:11:08.686Z,33.21
2023-04-10T01:12:08.726Z,29.50
2023-04-10T01:13:08.722Z,30.54
2023-04-10T01:14:08.753Z,29.91
2023-04-10T01:15:08.823Z,29.75
2023-04-10T01:16:08.835Z,28.30
2023-04-10T01:17:08.968Z,29.27
2023-04-10T01:18:09.029Z,28.47
2023-04-10T01:19:08.983Z,29.22
2023-04-10T01:20:09.026Z,27.90
2023-04-10T01:21:09.044Z,30.31
2023-04-10T01:22:09.098Z,29.94
2023-04-10T01:23:09.129Z,26.78
2023-04-10T01:24:09.157Z,30.09
2023-04-10T01:25:09.202Z,30.78
2023-04-10T01:26:09.263Z,29.30
2023-04-10T01:27:09.272Z,30.74
2023-04-10T01:28:09.310Z,33.54
2023-04-10T01:29:09.371Z,32.28
2023-04-10T01:30:09.474Z,33.01
2023-04-10T01:31:09.536Z,32.57
2023-04-10T01:32:09.495Z,32.76
2023-04-10T01:33:09.550Z,31.03
2023-04-10T01:34:09.737Z,35.44
2023-04-10T01:35:09.596Z,33.57
2023-04-10T01:36:09.689Z,32.53
2023-04-10T01:37:09.686Z,34.63
2023-04-10T01:38:09.736Z,33.38
2023-04-10T01:39:09.820Z,36.38
2023-04-10T01:40:09.822Z,33.07
2023-04-10T01:41:09.841Z,31.46
2023-04-10T01:42:09.869Z,30.16
2023-04-10T01:43:09.944Z,28.14
2023-04-10T01:44:09.943Z,32.22
2023-04-10T01:45:10.017Z,30.89
2023-04-10T01:46:10.078Z,30.58
2023-04-10T01:47:10.089Z,31.92
2023-04-10T01:48:10.140Z,30.53
2023-04-10T01:49:10.188Z,29.52
2023-04-10T01:50:10.218Z,31.13
2023-04-10T01:51:10.252Z,30.12
2023-04-10T01:52:10.275Z,33.99
2023-04-10T01:53:10.316Z,29.05
2023-04-10T01:54:10.370Z,30.20
2023-04-10T01:55:10.451Z,31.67
2023-04-10T01:56:10.493Z,31.12
2023-04-10T01:57:10.511Z,31.93
2023-04-10T01:58:10.534Z,30.57
2023-04-10T01:59:10.591Z,33.78
2023-04-10T02:00:10.682Z,30.46
2023-04-10T02:01:22.506Z,29.69
2023-04-10T02:02:12.017Z,29.86
2023-04-10T02:03:11.027Z,29.87
2023-04-10T02:04:10.864Z,30.86
2023-04-10T02:05:10.750Z,28.28
2023-04-10T02:06:10.656Z,31.41
2023-04-10T02:07:10.625Z,32.27
2023-04-10T02:08:10.637Z,30.98
2023-04-10T02:09:10.624Z,28.98
2023-04-10T02:10:10.608Z,29.86
2023-04-10T02:11:10.631Z,31.58
2023-04-10T02:12:10.678Z,35.49
2023-04-10T02:13:10.685Z,31.88
2023-04-10T02:14:10.776Z,31.31
2023-04-10T02:15:10.793Z,30.44
2023-04-10T02:16:10.860Z,30.77
2023-04-10T02:17:10.888Z,33.36
2023-04-10T02:18:10.949Z,29.45
2023-04-10T02:19:10.946Z,32.32
2023-04-10T02:20:11.001Z,30.05
2023-04-10T02:21:11.047Z,30.22
2023-04-10T02:22:11.081Z,31.69
2023-04-10T02:23:11.132Z,30.02
2023-04-10T02:24:11.192Z,34.35
2023-04-10T02:25:11.194Z,33.32
2023-04-10T02:26:11.282Z,33.43
2023-04-10T02:27:11.299Z,33.61
2023-04-10T02:28:11.355Z,30.72
2023-04-10T02:29:11.374Z,27.67
2023-04-10T02:30:11.437Z,30.16
2023-04-10T02:31:11.576Z,29.20
2023-04-10T02:32:11.545Z,28.78
2023-04-10T02:33:11.602Z,28.90
2023-04-10T02:34:11.633Z,29.37
2023-04-10T02:35:11.709Z,30.33
2023-04-10T02:36:11.794Z,29.34
2023-04-10T02:37:11.823Z,26.77
2023-04-10T02:38:11.889Z,28.49
2023-04-10T02:39:11.925Z,27.45
2023-04-10T02:40:11.945Z,28.73
2023-04-10T02:41:12.008Z,27.65
2023-04-10T02:42:12.029Z,27.96
2023-04-10T02:43:12.139Z,28.35
2023-04-10T02:44:12.168Z,30.72
2023-04-10T02:45:12.204Z,30.74
2023-04-10T02:46:12.298Z,28.75
2023-04-10T02:47:12.311Z,29.82
2023-04-10T02:48:12.386Z,28.31
2023-04-10T02:49:12.398Z,27.11
2023-04-10T02:50:12.487Z,30.50
2023-04-10T02:51:12.527Z,26.72
2023-04-10T02:52:12.602Z,28.57
2023-04-10T02:53:12.632Z,27.35
2023-04-10T02:54:12.691Z,32.75
2023-04-10T02:55:12.750Z,30.82
2023-04-10T02:56:12.820Z,29.78
2023-04-10T02:57:12.839Z,31.34
2023-04-10T02:58:14.972Z,32.35
2023-04-10T02:59:12.899Z,27.03
2023-04-10T03:00:12.965Z,33.00
2023-04-10T03:01:13.065Z,33.20
2023-04-10T03:02:13.179Z,30.58
2023-04-10T03:03:13.251Z,31.33
2023-04-10T03:04:13.423Z,29.44
2023-04-10T03:05:13.264Z,29.95
2023-04-10T03:06:13.317Z,30.82
2023-04-10T03:07:13.365Z,41.02
2023-04-10T03:08:13.427Z,34.16
2023-04-10T03:09:13.481Z,31.70
2023-04-10T03:10:13.511Z,35.53
2023-04-10T03:11:13.958Z,31.29
2023-04-10T03:12:13.652Z,34.30
2023-04-10T03:13:13.723Z,30.33
2023-04-10T03:14:13.750Z,30.71
2023-04-10T03:15:13.801Z,33.28
2023-04-10T03:16:13.881Z,30.00
2023-04-10T03:17:13.932Z,28.17
2023-04-10T03:18:14.015Z,26.71
2023-04-10T03:19:14.053Z,26.93
2023-04-10T03:20:14.099Z,28.77
2023-04-10T03:21:14.135Z,27.87
2023-04-10T03:22:14.216Z,31.42
2023-04-10T03:23:14.300Z,33.08
2023-04-10T03:24:14.314Z,27.90
2023-04-10T03:25:14.399Z,27.34
2023-04-10T03:26:14.425Z,28.05
2023-04-10T03:27:14.458Z,27.18
2023-04-10T03:28:14.508Z,29.83
2023-04-10T03:29:14.532Z,26.66
2023-04-10T03:30:14.612Z,29.62
2023-04-10T03:31:14.690Z,27.19
2023-04-10T03:32:14.783Z,28.91
2023-04-10T03:33:14.786Z,32.55
2023-04-10T03:34:14.779Z,30.90
2023-04-10T03:35:14.850Z,32.00
2023-04-10T03:36:14.927Z,31.97
2023-04-10T03:37:14.952Z,28.74
2023-04-10T03:38:14.979Z,28.75
2023-04-10T03:39:15.065Z,30.82
2023-04-10T03:40:15.097Z,28.39
2023-04-10T03:41:15.137Z,27.50
2023-04-10T03:42:15.212Z,28.62
2023-04-10T03:43:15.211Z,26.61
2023-04-10T03:44:15.280Z,25.93
2023-04-10T03:45:15.357Z,27.93
2023-04-10T03:46:15.424Z,28.69
2023-04-10T03:47:15.514Z,30.33
2023-04-10T03:48:15.517Z,33.91
2023-04-10T03:49:15.557Z,30.95
2023-04-10T03:50:15.621Z,32.39
2023-04-10T03:51:15.683Z,28.07
2023-04-10T03:52:15.724Z,28.67
2023-04-10T03:53:15.796Z,26.41
2023-04-10T03:54:15.843Z,29.76
2023-04-10T03:55:15.898Z,28.96
2023-04-10T03:56:15.963Z,27.27
2023-04-10T03:57:16.007Z,28.46
2023-04-10T03:58:16.046Z,32.49
2023-04-10T03:59:16.134Z,29.69
2023-04-10T04:00:16.198Z,34.60
2023-04-10T04:01:16.253Z,30.46
2023-04-10T04:02:16.401Z,37.24
2023-04-10T04:03:16.517Z,33.00
2023-04-10T04:04:16.701Z,33.38
2023-04-10T04:05:16.485Z,35.39
2023-04-10T04:06:16.536Z,35.25
2023-04-10T04:07:16.585Z,31.86
2023-04-10T04:08:16.633Z,32.25
2023-04-10T04:09:16.692Z,34.61
2023-04-10T04:10:16.769Z,34.34
2023-04-10T04:11:16.833Z,30.64
2023-04-10T04:12:16.868Z,33.68
2023-04-10T04:13:16.908Z,31.19
2023-04-10T04:14:16.984Z,34.39
2023-04-10T04:15:17.027Z,31.80
2023-04-10T04:16:17.154Z,31.55
2023-04-10T04:17:17.167Z,34.04
2023-04-10T04:18:17.205Z,32.29
2023-04-10T04:19:17.274Z,28.01
2023-04-10T04:20:17.368Z,30.99
2023-04-10T04:21:17.401Z,30.83
2023-04-10T04:22:17.447Z,32.01
2023-04-10T04:23:17.533Z,27.32
2023-04-10T04:24:17.615Z,30.22
2023-04-10T04:25:17.679Z,30.81
2023-04-10T04:26:17.716Z,27.95
2023-04-10T04:27:17.783Z,27.03
2023-04-10T04:28:17.848Z,31.60
2023-04-10T04:29:17.928Z,28.34
2023-04-10T04:30:17.999Z,28.95
2023-04-10T04:31:18.012Z,33.58
2023-04-10T04:32:18.256Z,30.41
2023-04-10T04:33:18.176Z,33.92
2023-04-10T04:34:18.226Z,31.92
2023-04-10T04:35:18.285Z,33.14
2023-04-10T04:36:18.360Z,28.95
2023-04-10T04:37:18.371Z,31.63
2023-04-10T04:38:18.413Z,26.38
2023-04-10T04:39:18.532Z,26.83
2023-04-10T04:40:18.584Z,25.17
2023-04-10T04:41:20.485Z,28.06
2023-04-10T04:42:18.673Z,29.39
2023-04-10T04:43:18.733Z,30.07
2023-04-10T04:44:18.768Z,29.35
2023-04-10T04:45:18.889Z,27.40
2023-04-10T04:46:18.952Z,28.77
2023-04-10T04:47:19.048Z,32.91
2023-04-10T04:48:19.051Z,27.78
2023-04-10T04:49:19.085Z,28.40
2023-04-10T04:50:19.160Z,28.79
2023-04-10T04:51:19.199Z,29.14
2023-04-10T04:52:19.307Z,28.17
2023-04-10T04:53:19.362Z,28.12
2023-04-10T04:54:19.403Z,29.85
2023-04-10T04:55:19.480Z,27.29
2023-04-10T04:56:19.563Z,29.62
2023-04-10T04:57:19.622Z,32.13
2023-04-10T04:58:19.651Z,29.10
2023-04-10T04:59:19.728Z,29.75
2023-04-10T05:00:19.784Z,26.37
2023-04-10T05:01:19.983Z,30.53
2023-04-10T05:02:20.012Z,31.65
2023-04-10T05:03:20.199Z,29.37
2023-04-10T05:04:20.134Z,34.67
2023-04-10T05:05:20.101Z,29.75
2023-04-10T05:06:20.167Z,32.89
2023-04-10T05:07:20.272Z,32.33
2023-04-10T05:08:20.307Z,30.47
2023-04-10T05:09:20.340Z,31.29
2023-04-10T05:10:20.506Z,32.92
2023-04-10T05:11:20.515Z,34.70
2023-04-10T05:12:20.528Z,28.88
2023-04-10T05:13:20.577Z,30.86
2023-04-10T05:14:20.656Z,27.28
2023-04-10T05:15:20.717Z,28.55
2023-04-10T05:16:20.837Z,29.05
2023-04-10T05:17:20.888Z,31.71
2023-04-10T05:18:21.030Z,29.67
2023-04-10T05:19:20.971Z,31.45
2023-04-10T05:20:22.019Z,33.80
2023-04-10T05:21:21.099Z,29.93
2023-04-10T05:22:21.130Z,26.33
2023-04-10T05:23:21.201Z,32.90
2023-04-10T05:24:21.252Z,31.81
2023-04-10T05:25:21.366Z,33.19
2023-04-10T05:26:21.447Z,31.36
2023-04-10T05:27:21.437Z,31.32
2023-04-10T05:28:21.549Z,32.12
2023-04-10T05:29:21.620Z,31.09
2023-04-10T05:30:21.672Z,27.90
2023-04-10T05:31:21.800Z,26.27
2023-04-10T05:32:21.807Z,30.80
2023-04-10T05:33:21.857Z,29.33
2023-04-10T05:34:21.894Z,27.20
2023-04-10T05:35:21.945Z,30.01
2023-04-10T05:36:22.014Z,29.28
2023-04-10T05:37:22.092Z,28.28
2023-04-10T05:38:22.101Z,27.55
2023-04-10T05:39:22.141Z,28.90
2023-04-10T05:40:22.196Z,30.65
2023-04-10T05:41:22.289Z,27.75
2023-04-10T05:42:23.899Z,26.71
2023-04-10T05:43:22.424Z,26.43
2023-04-10T05:44:22.463Z,30.58
2023-04-10T05:45:22.531Z,25.98
2023-04-10T05:46:22.666Z,25.77
2023-04-10T05:47:22.659Z,28.44
2023-04-10T05:48:22.708Z,31.32
2023-04-10T05:49:22.811Z,26.95
2023-04-10T05:50:23.168Z,25.03
2023-04-10T05:51:22.925Z,29.98
2023-04-10T05:52:22.941Z,25.71
2023-04-10T05:53:23.043Z,29.48
2023-04-10T05:54:23.072Z,30.63
2023-04-10T05:55:23.196Z,25.00
2023-04-10T05:56:23.195Z,30.64
2023-04-10T05:57:23.235Z,26.79
2023-04-10T05:58:23.332Z,25.69
2023-04-10T05:59:23.349Z,27.99
2023-04-10T06:00:23.419Z,31.40
2023-04-10T06:01:23.540Z,25.67
2023-04-10T06:02:23.647Z,33.99
2023-04-10T06:03:23.836Z,30.88
2023-04-10T06:04:23.858Z,34.12
2023-04-10T06:05:23.751Z,33.41
2023-04-10T06:06:23.775Z,31.74
2023-04-10T06:07:23.828Z,32.31
2023-04-10T06:08:23.916Z,33.70
2023-04-10T06:09:23.994Z,28.57
2023-04-10T06:10:24.036Z,32.73
2023-04-10T06:11:24.117Z,31.92
2023-04-10T06:12:24.135Z,34.19
2023-04-10T06:13:24.209Z,32.90
2023-04-10T06:14:24.269Z,34.45
2023-04-10T06:15:24.313Z,31.68
2023-04-10T06:16:24.449Z,35.45
2023-04-10T06:17:24.428Z,32.20
2023-04-10T06:18:24.477Z,32.92
2023-04-10T06:19:24.577Z,30.90
2023-04-10T06:20:24.590Z,33.35
2023-04-10T06:21:24.636Z,29.33
2023-04-10T06:22:24.678Z,30.90
2023-04-10T06:23:24.724Z,27.73
2023-04-10T06:24:24.833Z,29.51
2023-04-10T06:25:24.884Z,28.75
2023-04-10T06:26:24.920Z,33.66
2023-04-10T06:27:25.001Z,31.03
2023-04-10T06:28:25.079Z,30.29
2023-04-10T06:29:25.090Z,35.64
2023-04-10T06:30:25.152Z,28.80
2023-04-10T06:31:25.202Z,29.55
2023-04-10T06:32:25.274Z,26.87
2023-04-10T06:33:26.384Z,31.03
2023-04-10T06:34:25.300Z,30.09
2023-04-10T06:35:25.375Z,32.73
2023-04-10T06:36:25.656Z,32.65
2023-04-10T06:37:25.475Z,29.08
2023-04-10T06:38:25.525Z,30.37
2023-04-10T06:39:25.588Z,30.46
2023-04-10T06:40:25.588Z,32.45
2023-04-10T06:41:25.684Z,30.68
2023-04-10T06:42:25.706Z,32.84
2023-04-10T06:43:25.752Z,33.40
2023-04-10T06:44:25.833Z,33.90
2023-04-10T06:45:25.842Z,30.86
2023-04-10T06:46:25.944Z,36.18
2023-04-10T06:47:25.974Z,37.36
2023-04-10T06:48:25.994Z,39.62
2023-04-10T06:49:26.035Z,38.95
2023-04-10T06:50:26.320Z,37.36
2023-04-10T06:51:26.146Z,39.43
2023-04-10T06:52:26.172Z,39.08
2023-04-10T06:53:26.229Z,37.93
2023-04-10T06:54:26.293Z,39.71
2023-04-10T06:55:26.328Z,42.43
2023-04-10T06:56:26.350Z,42.39
2023-04-10T06:57:26.419Z,43.63
2023-04-10T06:58:26.470Z,41.62
2023-04-10T06:59:26.522Z,43.01
2023-04-10T07:00:26.547Z,42.07
2023-04-10T07:01:26.789Z,42.58
2023-04-10T07:02:26.838Z,39.84
2023-04-10T07:03:27.581Z,43.51
2023-04-10T07:04:26.725Z,40.66
2023-04-10T07:05:26.745Z,41.95
2023-04-10T07:06:26.795Z,43.49
2023-04-10T07:07:26.854Z,42.59
2023-04-10T07:08:26.918Z,37.70
2023-04-10T07:09:26.947Z,40.30
2023-04-10T07:10:27.039Z,40.85
2023-04-10T07:11:27.033Z,41.06
2023-04-10T07:12:27.081Z,44.56
2023-04-10T07:13:27.123Z,43.70
2023-04-10T07:14:27.186Z,44.99
2023-04-10T07:15:27.230Z,45.12
2023-04-10T07:16:27.344Z,45.22
2023-04-10T07:17:27.383Z,43.44
2023-04-10T07:18:27.352Z,47.47
2023-04-10T07:19:27.367Z,39.31
2023-04-10T07:20:27.413Z,43.65
2023-04-10T07:21:27.490Z,44.39
2023-04-10T07:22:27.474Z,43.63
2023-04-10T07:23:27.495Z,44.27
2023-04-10T07:24:27.566Z,44.84
2023-04-10T07:25:27.587Z,46.75
2023-04-10T07:26:27.635Z,43.09
2023-04-10T07:27:27.721Z,41.18
2023-04-10T07:28:27.704Z,40.81
2023-04-10T07:29:27.773Z,40.74
2023-04-10T07:30:27.820Z,42.35
2023-04-10T07:31:27.947Z,40.87
2023-04-10T07:32:28.006Z,42.26
2023-04-10T07:33:27.997Z,44.11
2023-04-10T07:34:27.950Z,44.59
2023-04-10T07:35:27.954Z,46.87
2023-04-10T07:36:28.032Z,44.03
2023-04-10T07:37:28.055Z,45.63
2023-04-10T07:38:28.158Z,47.19
2023-04-10T07:39:28.169Z,46.28
2023-04-10T07:40:28.206Z,46.77
2023-04-10T07:41:28.230Z,48.58
2023-04-10T07:42:28.252Z,50.67
2023-04-10T07:43:28.253Z,51.75
2023-04-10T07:44:28.291Z,52.33
2023-04-10T07:45:28.432Z,50.32
2023-04-10T07:46:28.375Z,52.48
2023-04-10T07:47:28.475Z,52.10
2023-04-10T07:48:28.459Z,52.88
2023-04-10T07:49:28.485Z,53.01
2023-04-10T07:50:28.536Z,49.86
2023-04-10T07:51:28.594Z,45.83
2023-04-10T07:52:28.612Z,48.34
2023-04-10T07:53:28.660Z,46.23
2023-04-10T07:54:28.651Z,44.80
2023-04-10T07:55:28.722Z,42.50
2023-04-10T07:56:28.734Z,44.42
2023-04-10T07:57:28.753Z,41.17
2023-04-10T07:58:28.785Z,43.95
2023-04-10T07:59:28.815Z,39.79
2023-04-10T08:00:28.878Z,41.37
2023-04-10T08:01:28.970Z,45.34
2023-04-10T08:02:29.159Z,45.84
2023-04-10T08:03:29.083Z,42.70
2023-04-10T08:04:29.152Z,45.99
2023-04-10T08:05:29.100Z,48.26
2023-04-10T08:06:29.109Z,46.74
2023-04-10T08:07:29.125Z,49.85
2023-04-10T08:08:29.163Z,46.21
2023-04-10T08:09:29.204Z,40.73
2023-04-10T08:10:29.253Z,45.62
2023-04-10T08:11:29.257Z,46.24
2023-04-10T08:12:29.299Z,44.34
2023-04-10T08:13:29.341Z,38.22
2023-04-10T08:14:29.383Z,38.55
2023-04-10T08:15:29.414Z,36.23
2023-04-10T08:16:29.480Z,34.11
2023-04-10T08:17:29.508Z,35.47
2023-04-10T08:18:29.499Z,41.95
2023-04-10T08:19:29.563Z,39.55
2023-04-10T08:20:29.584Z,38.08
2023-04-10T08:21:29.661Z,36.29
2023-04-10T08:22:29.652Z,35.07
2023-04-10T08:23:29.690Z,29.66
2023-04-10T08:24:29.741Z,34.30
2023-04-10T08:25:29.746Z,36.77
2023-04-10T08:26:29.791Z,37.04
2023-04-10T08:27:29.771Z,44.31
2023-04-10T08:28:29.852Z,46.19
2023-04-10T08:29:29.858Z,47.31
2023-04-10T08:30:29.876Z,48.65
2023-04-10T08:31:30.172Z,40.93
2023-04-10T08:32:29.968Z,44.41
2023-04-10T08:33:29.937Z,45.90
2023-04-10T08:34:29.982Z,44.55
2023-04-10T08:35:30.021Z,40.73
2023-04-10T08:36:30.069Z,47.33
2023-04-10T08:37:30.092Z,48.59
2023-04-10T08:38:30.130Z,55.45
2023-04-10T08:39:30.172Z,68.65
2023-04-10T08:40:30.243Z,70.90
2023-04-10T08:41:30.311Z,72.92
2023-04-10T08:42:30.254Z,69.72
2023-04-10T08:43:30.296Z,75.55
2023-04-10T08:44:30.327Z,78.40
2023-04-10T08:45:30.326Z,71.13
2023-04-10T08:46:30.479Z,67.15
2023-04-10T08:47:30.403Z,59.59
2023-04-10T08:48:30.422Z,63.89
2023-04-10T08:49:30.481Z,65.19
2023-04-10T08:50:30.552Z,64.31
2023-04-10T08:51:30.515Z,68.71
2023-04-10T08:52:30.567Z,65.38
2023-04-10T08:53:30.603Z,60.70
2023-04-10T08:54:30.627Z,61.23
2023-04-10T08:55:30.649Z,61.65
2023-04-10T08:56:30.672Z,69.43
2023-04-10T08:57:30.735Z,72.96
2023-04-10T08:58:30.726Z,71.32
2023-04-10T08:59:30.793Z,70.79
2023-04-10T09:00:30.813Z,68.67
2023-04-10T09:01:30.892Z,69.00
2023-04-10T09:02:31.062Z,74.47
2023-04-10T09:03:31.063Z,88.96
2023-04-10T09:04:30.971Z,81.35
2023-04-10T09:05:30.950Z,93.25
2023-04-10T09:06:30.948Z,93.34
2023-04-10T09:07:30.987Z,84.12
2023-04-10T09:08:31.026Z,85.89
2023-04-10T09:09:31.045Z,92.30
2023-04-10T09:10:31.076Z,83.42
2023-04-10T09:11:31.083Z,86.16
2023-04-10T09:12:31.084Z,91.29
2023-04-10T09:13:31.137Z,93.89
2023-04-10T09:14:31.176Z,101.00
2023-04-10T09:15:31.187Z,103.79
2023-04-10T09:16:31.299Z,102.30
2023-04-10T09:17:31.341Z,98.15
2023-04-10T09:18:31.283Z,93.31
2023-04-10T09:19:31.318Z,92.63
2023-04-10T09:20:31.363Z,79.31
2023-04-10T09:21:31.352Z,86.56
2023-04-10T09:22:31.405Z,91.84
2023-04-10T09:23:31.398Z,87.74
2023-04-10T09:24:31.437Z,89.43
2023-04-10T09:25:31.460Z,89.47
2023-04-10T09:26:31.477Z,86.49
2023-04-10T09:27:31.632Z,85.67
2023-04-10T09:28:31.529Z,89.23
2023-04-10T09:29:31.533Z,89.11
2023-04-10T09:30:31.538Z,89.76
2023-04-10T09:31:31.630Z,87.34
2023-04-10T09:32:31.633Z,75.50
2023-04-10T09:33:31.598Z,83.93
2023-04-10T09:34:31.618Z,86.36
2023-04-10T09:35:32.627Z,83.15
2023-04-10T09:36:31.673Z,80.87
2023-04-10T09:37:31.636Z,83.53
2023-04-10T09:38:31.656Z,86.28
2023-04-10T09:39:31.700Z,88.65
2023-04-10T09:40:31.725Z,83.81
2023-04-10T09:41:31.726Z,72.20
2023-04-10T09:42:31.702Z,82.50
2023-04-10T09:43:31.718Z,85.56
2023-04-10T09:44:31.785Z,85.47
2023-04-10T09:45:31.767Z,76.40
2023-04-10T09:46:31.820Z,77.95
2023-04-10T09:47:31.800Z,84.29
2023-04-10T09:48:31.793Z,79.76
2023-04-10T09:49:31.827Z,78.86
2023-04-10T09:50:34.014Z,86.15
2023-04-10T09:51:31.853Z,86.50
2023-04-10T09:52:31.831Z,87.02
2023-04-10T09:53:31.793Z,81.66
2023-04-10T09:54:31.796Z,72.59
2023-04-10T09:55:31.805Z,85.53
2023-04-10T09:56:31.845Z,83.86
2023-04-10T09:57:31.794Z,85.61
2023-04-10T09:58:31.806Z,83.91
2023-04-10T09:59:31.756Z,80.15
2023-04-10T10:00:31.755Z,75.34
2023-04-10T10:01:31.780Z,78.79
2023-04-10T10:02:32.150Z,81.08
2023-04-10T10:03:31.802Z,79.59
2023-04-10T10:04:31.754Z,82.60
2023-04-10T10:05:31.733Z,82.11
2023-04-10T10:06:31.735Z,72.65
2023-04-10T10:07:31.713Z,82.62
2023-04-10T10:08:31.686Z,86.86
2023-04-10T10:09:31.724Z,84.41
2023-04-10T10:10:31.710Z,89.61
2023-04-10T10:11:31.712Z,94.38
2023-04-10T10:12:31.690Z,86.62
2023-04-10T10:13:31.696Z,84.71
2023-04-10T10:14:31.704Z,83.21
2023-04-10T10:15:31.684Z,79.33
2023-04-10T10:16:31.694Z,83.83
2023-04-10T10:17:31.740Z,84.67
2023-04-10T10:18:31.654Z,79.70
2023-04-10T10:19:31.637Z,75.07
2023-04-10T10:20:31.611Z,80.30
2023-04-10T10:21:31.651Z,80.45
2023-04-10T10:22:31.654Z,78.30
2023-04-10T10:23:31.615Z,82.72
2023-04-10T10:24:31.622Z,75.98
2023-04-10T10:25:31.671Z,79.39
2023-04-10T10:26:31.589Z,67.94
2023-04-10T10:27:31.587Z,64.19
2023-04-10T10:28:31.570Z,62.29
2023-04-10T10:29:31.578Z,68.38
2023-04-10T10:30:31.649Z,69.80
2023-04-10T10:31:31.645Z,77.72
2023-04-10T10:32:32.225Z,77.52
2023-04-10T10:33:31.588Z,74.55
2023-04-10T10:34:31.562Z,78.12
2023-04-10T10:35:31.547Z,77.32
2023-04-10T10:36:31.582Z,74.53
2023-04-10T10:37:31.553Z,77.18
2023-04-10T10:38:31.569Z,77.45
2023-04-10T10:39:31.571Z,78.94
2023-04-10T10:40:31.621Z,67.12
2023-04-10T10:41:31.660Z,56.96
2023-04-10T10:42:31.652Z,67.84
2023-04-10T10:43:31.654Z,70.17
2023-04-10T10:44:31.669Z,79.89
2023-04-10T10:45:31.696Z,74.26
2023-04-10T10:46:31.707Z,81.14
2023-04-10T10:47:31.778Z,77.83
2023-04-10T10:48:31.736Z,71.20
2023-04-10T10:49:31.761Z,75.71
2023-04-10T10:50:31.760Z,79.63
2023-04-10T10:51:31.820Z,80.67
2023-04-10T10:52:31.781Z,80.60
2023-04-10T10:53:31.821Z,81.64
2023-04-10T10:54:31.863Z,83.80
2023-04-10T10:55:31.838Z,76.69
2023-04-10T10:56:31.877Z,75.93
2023-04-10T10:57:31.911Z,82.85
2023-04-10T10:58:31.885Z,85.29
2023-04-10T10:59:31.932Z,78.46
2023-04-10T11:00:31.923Z,77.74
2023-04-10T11:01:31.971Z,84.45
2023-04-10T11:02:32.064Z,80.51
2023-04-10T11:03:32.237Z,83.12
2023-04-10T11:04:31.965Z,94.69
2023-04-10T11:05:31.982Z,88.56
2023-04-10T11:06:32.015Z,92.13
2023-04-10T11:07:31.997Z,87.58
2023-04-10T11:08:32.027Z,87.57
2023-04-10T11:09:32.037Z,80.22
2023-04-10T11:10:34.586Z,85.11
2023-04-10T11:11:32.021Z,86.29
2023-04-10T11:12:32.031Z,88.64
2023-04-10T11:13:32.029Z,84.57
2023-04-10T11:14:32.015Z,90.31
2023-04-10T11:15:32.001Z,87.37
2023-04-10T11:16:32.013Z,95.18
2023-04-10T11:17:32.036Z,89.76
2023-04-10T11:18:31.991Z,89.58
2023-04-10T11:19:31.952Z,87.38
2023-04-10T11:20:31.990Z,93.03
2023-04-10T11:21:31.968Z,93.35
2023-04-10T11:22:31.989Z,90.72
2023-04-10T11:23:31.959Z,91.06
2023-04-10T11:24:31.937Z,90.67
2023-04-10T11:25:31.911Z,87.24
2023-04-10T11:26:31.947Z,91.14
2023-04-10T11:27:31.904Z,89.00
2023-04-10T11:28:31.937Z,89.20
2023-04-10T11:29:31.879Z,88.11
2023-04-10T11:30:31.910Z,91.62
2023-04-10T11:31:31.894Z,91.08
2023-04-10T11:32:31.897Z,87.79
2023-04-10T11:33:31.890Z,87.02
2023-04-10T11:34:31.892Z,92.46
2023-04-10T11:35:32.005Z,88.70
2023-04-10T11:36:31.846Z,88.56
2023-04-10T11:37:31.872Z,91.11
2023-04-10T11:38:31.839Z,89.47
2023-04-10T11:39:31.826Z,93.18
2023-04-10T11:40:31.858Z,98.63
2023-04-10T11:41:31.854Z,97.95
2023-04-10T11:42:31.808Z,98.84
2023-04-10T11:43:31.790Z,94.58
2023-04-10T11:44:31.808Z,95.03
2023-04-10T11:45:31.804Z,94.91
2023-04-10T11:46:31.870Z,93.98
2023-04-10T11:47:31.871Z,95.18
2023-04-10T11:48:31.761Z,96.06
2023-04-10T11:49:31.765Z,97.40
2023-04-10T11:50:31.748Z,95.43
2023-04-10T11:51:31.743Z,97.16
2023-04-10T11:52:31.774Z,93.61
2023-04-10T11:53:31.744Z,91.84
2023-04-10T11:54:31.717Z,89.93
2023-04-10T11:55:31.725Z,90.64
2023-04-10T11:56:31.734Z,93.35
2023-04-10T11:57:31.700Z,93.10
2023-04-10T11:58:31.719Z,92.37
2023-04-10T11:59:31.742Z,96.64
2023-04-10T12:00:31.682Z,96.29
2023-04-10T12:01:31.730Z,96.13
2023-04-10T12:02:31.784Z,96.32
2023-04-10T12:03:31.853Z,96.93
2023-04-10T12:04:31.820Z,96.41
2023-04-10T12:05:31.673Z,98.31
2023-04-10T12:06:31.673Z,97.08
2023-04-10T12:07:32.653Z,98.51
2023-04-10T12:08:31.654Z,102.66
2023-04-10T12:09:31.614Z,103.38
2023-04-10T12:10:31.638Z,104.59
2023-04-10T12:11:31.674Z,99.36
2023-04-10T12:12:31.613Z,100.15
2023-04-10T12:13:31.654Z,98.72
2023-04-10T12:14:31.612Z,104.19
2023-04-10T12:15:31.628Z,99.22
2023-04-10T12:16:31.598Z,99.47
2023-04-10T12:17:31.660Z,103.96
2023-04-10T12:18:31.593Z,104.09
2023-04-10T12:19:31.571Z,100.48
2023-04-10T12:20:31.561Z,101.85
2023-04-10T12:21:31.604Z,103.89
2023-04-10T12:22:31.574Z,103.36
2023-04-10T12:23:31.559Z,100.32
2023-04-10T12:24:31.553Z,104.01
2023-04-10T12:25:31.593Z,104.57
2023-04-10T12:26:31.670Z,105.61
2023-04-10T12:27:31.714Z,107.86
2023-04-10T12:28:31.755Z,102.07
2023-04-10T12:29:31.798Z,102.05
2023-04-10T12:30:31.871Z,100.78
2023-04-10T12:31:31.964Z,105.83
2023-04-10T12:32:32.017Z,100.43
2023-04-10T12:33:32.042Z,100.39
2023-04-10T12:34:32.085Z,103.20
2023-04-10T12:35:32.183Z,104.15
2023-04-10T12:36:32.294Z,103.16
2023-04-10T12:37:33.240Z,105.39
2023-04-10T12:38:32.335Z,102.13
2023-04-10T12:39:32.383Z,105.76
2023-04-10T12:40:32.418Z,106.07
2023-04-10T12:41:32.500Z,108.13
2023-04-10T12:42:32.533Z,104.99
2023-04-10T12:43:32.583Z,106.28
2023-04-10T12:44:32.623Z,103.64
2023-04-10T12:45:32.689Z,104.97
2023-04-10T12:46:32.777Z,110.63
2023-04-10T12:47:32.791Z,110.77
2023-04-10T12:48:32.818Z,111.32
2023-04-10T12:49:32.878Z,109.48
2023-04-10T12:50:32.902Z,111.95
2023-04-10T12:51:32.926Z,112.77